ADDS METAR Data INFO
IDs: Format: Raw Decoded Include TAF

Data at: 0841 UTC 27 Jun 2017

KMWL 270753Z AUTO 11004KT 10SM SCT055 SCT070 23/21 A3003 RMK AO2 SLP157 T02330211
KMWL 270653Z AUTO 13003KT 10SM BKN033 23/22 A3004 RMK AO2 SLP159 T02330217
KMWL 270553Z AUTO 14004KT 10SM SCT038 23/21 A3005 RMK AO2 SLP162 T02330211 10283 20233 403060206 50009
KMWL 270453Z AUTO 11003KT 10SM FEW045 24/22 A3005 RMK AO2 SLP163 T02390217
KMWL 270353Z AUTO 10004KT 10SM CLR 24/22 A3003 RMK AO2 SLP157 T02440217
KMWL 270253Z AUTO 12005KT 10SM CLR 25/21 A3002 RMK AO2 SLP154 T02500211 53005
KMWL 270153Z AUTO 12005KT 10SM CLR 26/21 A3001 RMK AO2 SLP151 T02610211
KMWL 270053Z AUTO 10005KT 10SM SCT038 28/21 A3001 RMK AO2 SLP150 T02780211
KMWL 262353Z AUTO 10006KT 10SM FEW070 28/21 A3001 RMK AO2 SLP148 60002 T02830211 10306 20256 56009
KMWL 262253Z AUTO 09008KT 10SM FEW033 SCT043 BKN050 29/21 A3001 RMK AO2 SLP149 T02890211
KMWL 262153Z AUTO 07007KT 10SM FEW035 SCT046 31/21 A3002 RMK AO2 SLP153 T03060211
KMWL 262053Z AUTO 08006KT 10SM CLR 29/22 A3004 RMK AO2 LTG DSNT N AND NW RAE17 TSE01 SLP157 P0002 60002 T02890217 58019
KMWL 262043Z AUTO 06008KT 10SM CLR 29/22 A3005 RMK AO2 LTG DSNT N AND NW RAE17 TSE01 P0002 T02890222
KMWL 262007Z AUTO 06009KT 6SM VCTS -RA SCT038 BKN045 OVC060 26/23 A3007 RMK AO2 LTG DSNT N TSE01 P0002 T02610233
KMWL 261953Z AUTO 07009KT 10SM -TSRA SCT033 BKN042 OVC060 27/22 A3007 RMK AO2 LTG DSNT N AND NE RAB36 TSE09B46 SLP171 P0000 T02670222
KMWL 261939Z AUTO 07009KT 10SM VCTS -RA FEW028 OVC035 27/22 A3008 RMK AO2 LTG DSNT N AND NE RAB36 TSE09 P0000 T02670217
KMWL 261915Z AUTO 35006KT 10SM BKN035 OVC050 28/21 A3009 RMK AO2 TSE09 T02830211
KMWL 261853Z AUTO 05005KT 10SM TS BKN035 OVC049 29/21 A3009 RMK AO2 LTG DSNT SE TSB53 SLP176 T02940206
KMWL 261753Z AUTO 19006KT 10SM FEW028 OVC080 28/21 A3012 RMK AO2 SLP185 T02830211 10283 20222 58007
KMWL 261653Z AUTO 19004KT 10SM FEW021 SCT029 27/22 A3013 RMK AO2 SLP192 T02720217
KMWL 261633Z AUTO 00000KT 10SM SCT022 27/21 A3014 RMK AO2 T02670211
KMWL 261553Z AUTO 21004KT 10SM OVC015 26/21 A3014 RMK AO2 SLP194 T02610211
KMWL 261551Z AUTO 19005KT 10SM OVC015 26/21 A3014 RMK AO2
KMWL 261453Z AUTO 13003KT 10SM OVC010 24/21 A3016 RMK AO2 SLP201 T02440206 50002
KMWL 261432Z AUTO 11006KT 10SM OVC010 24/21 A3017 RMK AO2 T02440211
KMWL 261412Z AUTO 15006KT 10SM OVC009 23/21 A3017 RMK AO2 T02330206
KMWL 261400Z AUTO 13004KT 10SM BKN010 BKN018 OVC070 23/21 A3017 RMK AO2 T02330206
KMWL 261353Z AUTO 16005KT 10SM BKN008 BKN018 OVC070 23/21 A3017 RMK AO2 SLP203 T02330206
KMWL 261351Z AUTO 15004KT 10SM BKN008 BKN018 OVC070 23/21 A3017 RMK AO2
KMWL 261338Z AUTO 12006KT 10SM FEW008 BKN039 OVC070 23/21 A3016 RMK AO2 T02330206
KMWL 261326Z AUTO 12006KT 10SM FEW010 BKN039 OVC070 23/21 A3016 RMK AO2 T02280206
KMWL 261306Z AUTO 12004KT 9SM BKN010 OVC014 22/21 A3016 RMK AO2 CIG 007V012 T02220206
KMWL 261253Z AUTO 11004KT 9SM BKN008 OVC013 22/21 A3016 RMK AO2 CIG 007V011 SLP199 T02220206
KMWL 261153Z AUTO 13005KT 9SM OVC009 22/20 A3014 RMK AO2 SLP194 T02170200 10222 20206 53005
KMWL 261146Z AUTO 14004KT 9SM OVC009 22/20 A3014 RMK AO2 T02170200
KMWL 261110Z AUTO 14003KT 10SM BKN013 21/20 A3013 RMK AO2 T02110200
KMWL 261053Z AUTO 13004KT 10SM CLR 21/19 A3013 RMK AO2 SLP189 T02110194
KMWL 260953Z AUTO 12005KT 10SM CLR 21/19 A3012 RMK AO2 SLP188 T02110194
KMWL 260853Z AUTO 14004KT 10SM CLR 22/20 A3013 RMK AO2 SLP189 T02170200 58007
KMWL 260753Z AUTO 13007KT 10SM CLR 22/20 A3013 RMK AO2 SLP190 T02170200
KMWL 260653Z AUTO 09003KT 10SM CLR 22/19 A3016 RMK AO2 SLP201 T02220194
KMWL 260553Z AUTO 12007KT 10SM CLR 22/19 A3015 RMK AO2 SLP196 T02220194 10289 20217 403060206 51005
KMWL 260453Z AUTO 14005KT 10SM CLR 22/19 A3014 RMK AO2 SLP195 T02220194
KMWL 260353Z AUTO 12005KT 10SM CLR 23/19 A3016 RMK AO2 SLP199 T02280194
KMWL 260253Z AUTO 10006KT 10SM CLR 24/19 A3013 RMK AO2 SLP192 T02440189 53010
KMWL 260153Z AUTO 10005KT 10SM CLR 26/19 A3012 RMK AO2 SLP187 T02560189
KMWL 260053Z AUTO 10006KT 10SM FEW060 27/18 A3010 RMK AO2 SLP182 T02720183
KMWL 252353Z AUTO 11008KT 10SM SCT060 29/18 A3010 RMK AO2 SLP181 T02890183 10306 20278 56017
KMWL 252253Z AUTO 10008KT 10SM FEW045 SCT060 29/18 A3011 RMK AO2 SLP185 T02890178
KMWL 252153Z AUTO 11010KT 10SM BKN042 BKN060 29/19 A3014 RMK AO2 SLP194 T02890189
KMWL 252053Z AUTO 09004KT 10SM FEW041 BKN055 29/19 A3016 RMK AO2 SLP199 T02890189 58022


Page loaded:  08:41 UTC  |   01:41 AM Pacific  |   02:41 AM Mountain  |   03:41 AM Central  |   04:41 AM Eastern

 

ADVISORIES

FORECASTS

FORECASTS

OBSERVATIONS

USER TOOLS

ABOUT US